sensor_id;sensor_type;location;lat;lon;timestamp;temperature;humidity
51739;DHT22;37815;52.692;6.226;2023-03-01T00:02:23;7.10;97.00
51739;DHT22;37815;52.692;6.226;2023-03-01T00:07:24;7.00;97.00
51739;DHT22;37815;52.692;6.226;2023-03-01T00:12:25;7.00;97.00
51739;DHT22;37815;52.692;6.226;2023-03-01T00:17:26;7.00;97.00
51739;DHT22;37815;52.692;6.226;2023-03-01T00:22:27;7.00;97.00
51739;DHT22;37815;52.692;6.226;2023-03-01T00:27:31;6.90;97.00
51739;DHT22;37815;52.692;6.226;2023-03-01T00:32:31;6.90;97.00
51739;DHT22;37815;52.692;6.226;2023-03-01T00:37:32;6.90;97.10
51739;DHT22;37815;52.692;6.226;2023-03-01T00:42:32;6.90;97.10
51739;DHT22;37815;52.692;6.226;2023-03-01T00:47:33;6.90;97.10
51739;DHT22;37815;52.692;6.226;2023-03-01T00:52:34;6.80;97.00
51739;DHT22;37815;52.692;6.226;2023-03-01T00:57:34;6.80;97.00
51739;DHT22;37815;52.692;6.226;2023-03-01T01:02:35;7.30;97.20
51739;DHT22;37815;52.692;6.226;2023-03-01T01:07:36;6.80;97.10
51739;DHT22;37815;52.692;6.226;2023-03-01T01:12:37;6.80;97.10
51739;DHT22;37815;52.692;6.226;2023-03-01T01:17:37;6.70;97.00
51739;DHT22;37815;52.692;6.226;2023-03-01T01:22:38;6.70;97.10
51739;DHT22;37815;52.692;6.226;2023-03-01T01:27:38;6.70;97.10
51739;DHT22;37815;52.692;6.226;2023-03-01T01:32:39;6.70;97.10
51739;DHT22;37815;52.692;6.226;2023-03-01T01:37:40;6.60;97.10
51739;DHT22;37815;52.692;6.226;2023-03-01T01:42:40;6.60;97.10
51739;DHT22;37815;52.692;6.226;2023-03-01T01:47:41;6.60;97.10
51739;DHT22;37815;52.692;6.226;2023-03-01T01:52:42;6.60;97.10
51739;DHT22;37815;52.692;6.226;2023-03-01T01:57:48;6.60;97.10
51739;DHT22;37815;52.692;6.226;2023-03-01T02:02:55;6.60;97.10
51739;DHT22;37815;52.692;6.226;2023-03-01T02:07:56;6.60;97.10
51739;DHT22;37815;52.692;6.226;2023-03-01T02:12:58;6.50;97.00
51739;DHT22;37815;52.692;6.226;2023-03-01T02:18:02;6.50;97.10
51739;DHT22;37815;52.692;6.226;2023-03-01T02:23:04;6.50;97.10
51739;DHT22;37815;52.692;6.226;2023-03-01T02:33:14;6.50;97.10
51739;DHT22;37815;52.692;6.226;2023-03-01T02:38:15;6.40;97.00
51739;DHT22;37815;52.692;6.226;2023-03-01T02:43:16;6.40;97.00
51739;DHT22;37815;52.692;6.226;2023-03-01T02:48:18;6.40;97.10
51739;DHT22;37815;52.692;6.226;2023-03-01T02:53:31;6.40;97.10
51739;DHT22;37815;52.692;6.226;2023-03-01T02:58:33;6.40;97.10
51739;DHT22;37815;52.692;6.226;2023-03-01T03:03:45;6.30;97.10
51739;DHT22;37815;52.692;6.226;2023-03-01T03:08:46;6.30;97.10
51739;DHT22;37815;52.692;6.226;2023-03-01T03:13:46;6.40;97.10
51739;DHT22;37815;52.692;6.226;2023-03-01T03:18:48;6.30;97.10
51739;DHT22;37815;52.692;6.226;2023-03-01T03:23:49;6.30;97.10
51739;DHT22;37815;52.692;6.226;2023-03-01T03:28:49;6.30;97.10
51739;DHT22;37815;52.692;6.226;2023-03-01T03:33:50;6.30;97.10
51739;DHT22;37815;52.692;6.226;2023-03-01T03:38:51;6.20;97.10
51739;DHT22;37815;52.692;6.226;2023-03-01T03:43:51;6.20;97.10
51739;DHT22;37815;52.692;6.226;2023-03-01T03:48:52;6.20;97.10
51739;DHT22;37815;52.692;6.226;2023-03-01T03:53:52;6.20;97.10
51739;DHT22;37815;52.692;6.226;2023-03-01T03:58:53;6.20;97.10
51739;DHT22;37815;52.692;6.226;2023-03-01T04:03:53;6.20;97.10
51739;DHT22;37815;52.692;6.226;2023-03-01T04:08:54;6.10;97.10
51739;DHT22;37815;52.692;6.226;2023-03-01T04:13:58;6.10;97.10
51739;DHT22;37815;52.692;6.226;2023-03-01T04:19:00;6.10;97.10
51739;DHT22;37815;52.692;6.226;2023-03-01T04:24:01;6.10;97.10
51739;DHT22;37815;52.692;6.226;2023-03-01T04:29:03;6.10;97.10
51739;DHT22;37815;52.692;6.226;2023-03-01T04:34:06;6.10;97.10
51739;DHT22;37815;52.692;6.226;2023-03-01T04:39:07;6.10;97.10
51739;DHT22;37815;52.692;6.226;2023-03-01T04:44:12;6.00;97.10
51739;DHT22;37815;52.692;6.226;2023-03-01T04:49:13;6.00;97.10
51739;DHT22;37815;52.692;6.226;2023-03-01T04:54:14;6.00;97.10
51739;DHT22;37815;52.692;6.226;2023-03-01T04:59:15;5.90;97.00
51739;DHT22;37815;52.692;6.226;2023-03-01T05:04:15;6.00;97.10
51739;DHT22;37815;52.692;6.226;2023-03-01T05:09:16;5.90;97.00
51739;DHT22;37815;52.692;6.226;2023-03-01T05:14:17;5.90;97.00
51739;DHT22;37815;52.692;6.226;2023-03-01T05:19:18;5.90;97.10
51739;DHT22;37815;52.692;6.226;2023-03-01T05:24:23;5.90;97.10
51739;DHT22;37815;52.692;6.226;2023-03-01T05:29:25;5.90;97.00
51739;DHT22;37815;52.692;6.226;2023-03-01T05:34:28;5.90;97.00
51739;DHT22;37815;52.692;6.226;2023-03-01T05:39:29;5.80;97.00
51739;DHT22;37815;52.692;6.226;2023-03-01T05:44:31;5.80;97.00
51739;DHT22;37815;52.692;6.226;2023-03-01T05:49:31;5.80;97.00
51739;DHT22;37815;52.692;6.226;2023-03-01T05:54:32;5.80;97.00
51739;DHT22;37815;52.692;6.226;2023-03-01T05:59:33;5.70;97.00
51739;DHT22;37815;52.692;6.226;2023-03-01T06:04:34;5.70;97.00
51739;DHT22;37815;52.692;6.226;2023-03-01T06:09:34;5.70;96.90
51739;DHT22;37815;52.692;6.226;2023-03-01T06:14:35;5.60;96.90
51739;DHT22;37815;52.692;6.226;2023-03-01T06:19:36;5.70;96.90
51739;DHT22;37815;52.692;6.226;2023-03-01T06:24:36;5.60;96.90
51739;DHT22;37815;52.692;6.226;2023-03-01T06:29:37;5.60;96.90
51739;DHT22;37815;52.692;6.226;2023-03-01T06:34:37;5.60;96.90
51739;DHT22;37815;52.692;6.226;2023-03-01T06:39:38;5.60;96.90
51739;DHT22;37815;52.692;6.226;2023-03-01T06:44:39;5.60;96.90
51739;DHT22;37815;52.692;6.226;2023-03-01T06:49:40;5.60;96.90
51739;DHT22;37815;52.692;6.226;2023-03-01T06:54:41;5.60;96.90
51739;DHT22;37815;52.692;6.226;2023-03-01T06:59:41;5.50;96.80
51739;DHT22;37815;52.692;6.226;2023-03-01T07:04:42;5.60;96.90
51739;DHT22;37815;52.692;6.226;2023-03-01T07:09:42;5.50;96.80
51739;DHT22;37815;52.692;6.226;2023-03-01T07:14:44;5.60;96.80
51739;DHT22;37815;52.692;6.226;2023-03-01T07:19:44;5.50;96.80
51739;DHT22;37815;52.692;6.226;2023-03-01T07:24:45;5.50;96.80
51739;DHT22;37815;52.692;6.226;2023-03-01T07:29:46;5.50;96.70
51739;DHT22;37815;52.692;6.226;2023-03-01T07:34:46;5.50;96.70
51739;DHT22;37815;52.692;6.226;2023-03-01T07:39:47;5.50;96.70
51739;DHT22;37815;52.692;6.226;2023-03-01T07:44:47;5.50;96.70
51739;DHT22;37815;52.692;6.226;2023-03-01T07:49:48;5.50;96.70
51739;DHT22;37815;52.692;6.226;2023-03-01T07:54:49;5.50;96.70
51739;DHT22;37815;52.692;6.226;2023-03-01T07:59:49;5.60;96.70
51739;DHT22;37815;52.692;6.226;2023-03-01T08:04:50;5.60;96.70
51739;DHT22;37815;52.692;6.226;2023-03-01T08:09:51;5.70;96.60
51739;DHT22;37815;52.692;6.226;2023-03-01T08:14:51;5.80;96.50
51739;DHT22;37815;52.692;6.226;2023-03-01T08:19:52;5.80;96.50
51739;DHT22;37815;52.692;6.226;2023-03-01T08:24:52;5.90;96.40
51739;DHT22;37815;52.692;6.226;2023-03-01T08:29:54;5.90;96.40
51739;DHT22;37815;52.692;6.226;2023-03-01T08:34:55;6.00;96.40
51739;DHT22;37815;52.692;6.226;2023-03-01T08:39:56;6.00;96.40
51739;DHT22;37815;52.692;6.226;2023-03-01T08:44:56;6.10;96.30
51739;DHT22;37815;52.692;6.226;2023-03-01T08:49:57;6.20;96.30
51739;DHT22;37815;52.692;6.226;2023-03-01T08:54:58;6.20;96.30
51739;DHT22;37815;52.692;6.226;2023-03-01T08:59:58;6.30;96.20
51739;DHT22;37815;52.692;6.226;2023-03-01T09:04:59;6.40;96.20
51739;DHT22;37815;52.692;6.226;2023-03-01T09:09:59;6.50;96.20
51739;DHT22;37815;52.692;6.226;2023-03-01T09:15:00;6.50;96.20
51739;DHT22;37815;52.692;6.226;2023-03-01T09:20:03;6.60;96.10
51739;DHT22;37815;52.692;6.226;2023-03-01T09:25:06;6.70;96.10
51739;DHT22;37815;52.692;6.226;2023-03-01T09:30:07;6.80;96.10
51739;DHT22;37815;52.692;6.226;2023-03-01T09:35:08;6.80;96.10
51739;DHT22;37815;52.692;6.226;2023-03-01T09:40:14;6.90;96.10
51739;DHT22;37815;52.692;6.226;2023-03-01T09:45:33;7.00;96.10
51739;DHT22;37815;52.692;6.226;2023-03-01T09:50:35;7.00;96.10
51739;DHT22;37815;52.692;6.226;2023-03-01T09:55:59;7.10;96.10
51739;DHT22;37815;52.692;6.226;2023-03-01T10:01:50;7.10;96.10
51739;DHT22;37815;52.692;6.226;2023-03-01T10:06:35;7.20;96.10
51739;DHT22;37815;52.692;6.226;2023-03-01T10:11:38;7.20;96.10
51739;DHT22;37815;52.692;6.226;2023-03-01T10:16:48;7.30;96.10
51739;DHT22;37815;52.692;6.226;2023-03-01T10:21:51;7.30;96.10
51739;DHT22;37815;52.692;6.226;2023-03-01T10:26:56;7.40;96.10
51739;DHT22;37815;52.692;6.226;2023-03-01T10:31:57;7.40;96.10
51739;DHT22;37815;52.692;6.226;2023-03-01T10:37:24;7.50;96.10
51739;DHT22;37815;52.692;6.226;2023-03-01T10:42:32;7.60;96.10
51739;DHT22;37815;52.692;6.226;2023-03-01T10:47:33;7.60;96.20
51739;DHT22;37815;52.692;6.226;2023-03-01T10:52:40;7.70;96.00
51739;DHT22;37815;52.692;6.226;2023-03-01T10:57:41;7.80;96.00
51739;DHT22;37815;52.692;6.226;2023-03-01T11:02:42;7.90;96.00
51739;DHT22;37815;52.692;6.226;2023-03-01T11:07:56;7.90;96.00
51739;DHT22;37815;52.692;6.226;2023-03-01T11:13:18;8.00;96.00
51739;DHT22;37815;52.692;6.226;2023-03-01T11:18:23;8.00;96.00
51739;DHT22;37815;52.692;6.226;2023-03-01T11:23:24;8.10;96.00
51739;DHT22;37815;52.692;6.226;2023-03-01T11:28:27;8.10;96.00
51739;DHT22;37815;52.692;6.226;2023-03-01T11:33:43;8.20;96.00
51739;DHT22;37815;52.692;6.226;2023-03-01T11:38:45;8.20;96.00
51739;DHT22;37815;52.692;6.226;2023-03-01T11:44:05;8.20;96.00
51739;DHT22;37815;52.692;6.226;2023-03-01T11:49:31;8.30;96.10
51739;DHT22;37815;52.692;6.226;2023-03-01T12:22:07;8.50;96.10
51739;DHT22;37815;52.692;6.226;2023-03-01T12:37:34;8.60;96.10
51739;DHT22;37815;52.692;6.226;2023-03-01T12:49:12;8.60;96.10
51739;DHT22;37815;52.692;6.226;2023-03-01T12:53:54;8.60;96.10
51739;DHT22;37815;52.692;6.226;2023-03-01T13:09:10;8.60;96.30
51739;DHT22;37815;52.692;6.226;2023-03-01T13:19:25;8.60;96.20
51739;DHT22;37815;52.692;6.226;2023-03-01T13:24:37;8.60;96.30
51739;DHT22;37815;52.692;6.226;2023-03-01T13:29:46;8.60;96.30
51739;DHT22;37815;52.692;6.226;2023-03-01T13:34:58;8.60;96.30
51739;DHT22;37815;52.692;6.226;2023-03-01T13:40:04;8.60;96.40
51739;DHT22;37815;52.692;6.226;2023-03-01T13:45:32;8.60;96.50
51739;DHT22;37815;52.692;6.226;2023-03-01T13:50:43;8.60;96.50
51739;DHT22;37815;52.692;6.226;2023-03-01T13:55:48;8.70;96.50
51739;DHT22;37815;52.692;6.226;2023-03-01T14:01:03;8.70;96.50
51739;DHT22;37815;52.692;6.226;2023-03-01T14:06:09;8.70;96.50
51739;DHT22;37815;52.692;6.226;2023-03-01T14:21:47;8.90;96.50
51739;DHT22;37815;52.692;6.226;2023-03-01T14:26:49;9.00;96.50
51739;DHT22;37815;52.692;6.226;2023-03-01T14:31:50;9.10;96.50
51739;DHT22;37815;52.692;6.226;2023-03-01T14:36:50;9.10;96.40
51739;DHT22;37815;52.692;6.226;2023-03-01T14:41:51;9.20;96.40
51739;DHT22;37815;52.692;6.226;2023-03-01T14:46:54;9.50;96.40
51739;DHT22;37815;52.692;6.226;2023-03-01T14:52:04;9.40;96.30
51739;DHT22;37815;52.692;6.226;2023-03-01T14:57:05;9.50;96.30
51739;DHT22;37815;52.692;6.226;2023-03-01T15:02:15;9.60;96.30
51739;DHT22;37815;52.692;6.226;2023-03-01T15:07:17;9.70;96.30
51739;DHT22;37815;52.692;6.226;2023-03-01T15:17:36;9.80;96.20
51739;DHT22;37815;52.692;6.226;2023-03-01T15:22:38;9.90;96.20
51739;DHT22;37815;52.692;6.226;2023-03-01T15:27:45;10.00;96.20
51739;DHT22;37815;52.692;6.226;2023-03-01T15:32:46;10.10;96.10
51739;DHT22;37815;52.692;6.226;2023-03-01T15:37:49;10.10;96.20
51739;DHT22;37815;52.692;6.226;2023-03-01T15:42:50;10.00;96.30
51739;DHT22;37815;52.692;6.226;2023-03-01T15:47:53;9.90;96.50
51739;DHT22;37815;52.692;6.226;2023-03-01T15:52:58;9.90;96.60
51739;DHT22;37815;52.692;6.226;2023-03-01T15:58:12;9.80;96.80
51739;DHT22;37815;52.692;6.226;2023-03-01T16:03:13;9.70;97.00
51739;DHT22;37815;52.692;6.226;2023-03-01T16:08:15;9.60;97.10
51739;DHT22;37815;52.692;6.226;2023-03-01T16:13:16;9.60;97.30
51739;DHT22;37815;52.692;6.226;2023-03-01T16:18:17;9.50;97.40
51739;DHT22;37815;52.692;6.226;2023-03-01T16:23:18;9.50;97.50
51739;DHT22;37815;52.692;6.226;2023-03-01T16:28:19;9.40;97.60
51739;DHT22;37815;52.692;6.226;2023-03-01T16:33:21;9.40;97.50
51739;DHT22;37815;52.692;6.226;2023-03-01T16:38:21;9.40;97.70
51739;DHT22;37815;52.692;6.226;2023-03-01T16:43:22;9.40;97.80
51739;DHT22;37815;52.692;6.226;2023-03-01T16:48:23;9.30;97.80
51739;DHT22;37815;52.692;6.226;2023-03-01T16:53:23;9.30;97.90
51739;DHT22;37815;52.692;6.226;2023-03-01T16:58:24;9.30;97.90
51739;DHT22;37815;52.692;6.226;2023-03-01T17:03:25;9.20;97.80
51739;DHT22;37815;52.692;6.226;2023-03-01T17:08:26;9.20;97.90
51739;DHT22;37815;52.692;6.226;2023-03-01T17:13:27;9.20;97.90
51739;DHT22;37815;52.692;6.226;2023-03-01T17:18:28;9.20;98.00
51739;DHT22;37815;52.692;6.226;2023-03-01T17:23:30;9.10;98.00
51739;DHT22;37815;52.692;6.226;2023-03-01T17:28:32;9.10;98.10
51739;DHT22;37815;52.692;6.226;2023-03-01T17:33:33;9.10;98.10
51739;DHT22;37815;52.692;6.226;2023-03-01T17:38:34;9.10;98.10
51739;DHT22;37815;52.692;6.226;2023-03-01T17:43:37;9.00;98.10
51739;DHT22;37815;52.692;6.226;2023-03-01T17:48:37;9.00;98.10
51739;DHT22;37815;52.692;6.226;2023-03-01T17:53:38;8.90;98.10
51739;DHT22;37815;52.692;6.226;2023-03-01T17:58:39;8.90;98.10
51739;DHT22;37815;52.692;6.226;2023-03-01T18:03:40;8.90;98.20
51739;DHT22;37815;52.692;6.226;2023-03-01T18:08:41;8.90;98.20
51739;DHT22;37815;52.692;6.226;2023-03-01T18:13:43;8.90;98.20
51739;DHT22;37815;52.692;6.226;2023-03-01T18:18:44;8.80;98.10
51739;DHT22;37815;52.692;6.226;2023-03-01T18:23:44;8.80;98.10
51739;DHT22;37815;52.692;6.226;2023-03-01T18:28:45;8.80;98.10
51739;DHT22;37815;52.692;6.226;2023-03-01T18:33:53;8.80;98.00
51739;DHT22;37815;52.692;6.226;2023-03-01T18:38:54;8.80;98.00
51739;DHT22;37815;52.692;6.226;2023-03-01T18:43:55;8.80;98.00
51739;DHT22;37815;52.692;6.226;2023-03-01T18:48:56;8.70;98.00
51739;DHT22;37815;52.692;6.226;2023-03-01T18:53:57;8.70;98.00
51739;DHT22;37815;52.692;6.226;2023-03-01T18:58:58;8.70;97.90
51739;DHT22;37815;52.692;6.226;2023-03-01T19:03:59;8.70;97.90
51739;DHT22;37815;52.692;6.226;2023-03-01T19:09:00;8.70;97.90
51739;DHT22;37815;52.692;6.226;2023-03-01T19:14:01;8.70;97.90
51739;DHT22;37815;52.692;6.226;2023-03-01T19:19:04;8.70;97.90
51739;DHT22;37815;52.692;6.226;2023-03-01T19:24:05;8.60;97.90
51739;DHT22;37815;52.692;6.226;2023-03-01T19:29:07;8.60;97.90
51739;DHT22;37815;52.692;6.226;2023-03-01T19:34:10;8.60;97.90
51739;DHT22;37815;52.692;6.226;2023-03-01T19:39:12;8.50;97.90
51739;DHT22;37815;52.692;6.226;2023-03-01T19:44:12;8.50;97.90
51739;DHT22;37815;52.692;6.226;2023-03-01T19:49:13;8.50;97.90
51739;DHT22;37815;52.692;6.226;2023-03-01T19:54:14;8.50;97.90
51739;DHT22;37815;52.692;6.226;2023-03-01T19:59:19;8.40;97.80
51739;DHT22;37815;52.692;6.226;2023-03-01T20:04:23;8.40;97.80
51739;DHT22;37815;52.692;6.226;2023-03-01T20:09:24;8.30;97.80
51739;DHT22;37815;52.692;6.226;2023-03-01T20:14:24;8.30;97.80
51739;DHT22;37815;52.692;6.226;2023-03-01T20:19:25;8.30;97.80
51739;DHT22;37815;52.692;6.226;2023-03-01T20:24:26;8.30;97.80
51739;DHT22;37815;52.692;6.226;2023-03-01T20:29:26;8.30;97.80
51739;DHT22;37815;52.692;6.226;2023-03-01T20:34:27;8.30;97.80
51739;DHT22;37815;52.692;6.226;2023-03-01T20:39:28;8.20;97.80
51739;DHT22;37815;52.692;6.226;2023-03-01T20:44:28;8.20;97.80
51739;DHT22;37815;52.692;6.226;2023-03-01T20:49:29;8.20;97.80
51739;DHT22;37815;52.692;6.226;2023-03-01T20:54:30;8.20;97.80
51739;DHT22;37815;52.692;6.226;2023-03-01T20:59:31;8.10;97.80
51739;DHT22;37815;52.692;6.226;2023-03-01T21:04:34;8.10;97.80
51739;DHT22;37815;52.692;6.226;2023-03-01T21:09:35;8.10;97.80
51739;DHT22;37815;52.692;6.226;2023-03-01T21:14:35;8.00;98.10
51739;DHT22;37815;52.692;6.226;2023-03-01T21:19:42;8.00;97.90
51739;DHT22;37815;52.692;6.226;2023-03-01T21:24:44;8.00;97.90
51739;DHT22;37815;52.692;6.226;2023-03-01T21:29:45;8.00;97.90
51739;DHT22;37815;52.692;6.226;2023-03-01T21:34:46;8.00;97.90
51739;DHT22;37815;52.692;6.226;2023-03-01T21:39:46;7.90;97.90
51739;DHT22;37815;52.692;6.226;2023-03-01T21:44:47;7.90;97.90
51739;DHT22;37815;52.692;6.226;2023-03-01T21:49:48;7.90;97.90
51739;DHT22;37815;52.692;6.226;2023-03-01T21:54:50;7.90;97.90
51739;DHT22;37815;52.692;6.226;2023-03-01T21:59:51;7.80;97.90
51739;DHT22;37815;52.692;6.226;2023-03-01T22:04:52;7.80;97.90
51739;DHT22;37815;52.692;6.226;2023-03-01T22:09:56;7.80;97.90
51739;DHT22;37815;52.692;6.226;2023-03-01T22:14:57;7.80;97.90
51739;DHT22;37815;52.692;6.226;2023-03-01T22:19:58;7.80;97.90
51739;DHT22;37815;52.692;6.226;2023-03-01T22:24:58;7.80;97.90
51739;DHT22;37815;52.692;6.226;2023-03-01T22:29:59;7.80;97.90
51739;DHT22;37815;52.692;6.226;2023-03-01T22:35:00;7.70;97.80
51739;DHT22;37815;52.692;6.226;2023-03-01T22:40:01;7.70;97.80
51739;DHT22;37815;52.692;6.226;2023-03-01T22:45:02;7.70;97.80
51739;DHT22;37815;52.692;6.226;2023-03-01T22:50:05;7.70;97.80
51739;DHT22;37815;52.692;6.226;2023-03-01T22:55:08;7.90;97.90
51739;DHT22;37815;52.692;6.226;2023-03-01T23:00:09;7.70;97.80
51739;DHT22;37815;52.692;6.226;2023-03-01T23:05:13;7.70;97.80
51739;DHT22;37815;52.692;6.226;2023-03-01T23:10:14;7.70;97.90
51739;DHT22;37815;52.692;6.226;2023-03-01T23:15:15;7.70;97.90
51739;DHT22;37815;52.692;6.226;2023-03-01T23:20:16;7.60;97.80
51739;DHT22;37815;52.692;6.226;2023-03-01T23:25:16;7.70;97.90
51739;DHT22;37815;52.692;6.226;2023-03-01T23:30:17;7.60;97.90
51739;DHT22;37815;52.692;6.226;2023-03-01T23:35:18;7.60;97.90
51739;DHT22;37815;52.692;6.226;2023-03-01T23:40:19;7.60;97.90
51739;DHT22;37815;52.692;6.226;2023-03-01T23:45:20;7.60;97.90
51739;DHT22;37815;52.692;6.226;2023-03-01T23:50:20;7.60;97.90
51739;DHT22;37815;52.692;6.226;2023-03-01T23:55:21;7.60;97.90
